sensor_id;sensor_type;location;lat;lon;timestamp;pressure;altitude;pressure_sealevel;temperature;humidity
57562;BME280;43397;51.530;5.974;2023-03-22T00:00:54;100614.06;;;13.11;82.30
57562;BME280;43397;51.530;5.974;2023-03-22T00:03:20;100611.66;;;12.99;82.85
57562;BME280;43397;51.530;5.974;2023-03-22T00:05:46;100623.69;;;13.16;82.87
57562;BME280;43397;51.530;5.974;2023-03-22T00:08:12;100616.22;;;12.93;83.58
57562;BME280;43397;51.530;5.974;2023-03-22T00:10:40;100615.31;;;12.93;84.08
57562;BME280;43397;51.530;5.974;2023-03-22T00:13:07;100611.06;;;12.84;85.85
57562;BME280;43397;51.530;5.974;2023-03-22T00:15:34;100612.97;;;12.79;86.64
57562;BME280;43397;51.530;5.974;2023-03-22T00:17:59;100606.75;;;12.79;87.11
57562;BME280;43397;51.530;5.974;2023-03-22T00:20:25;100608.25;;;12.90;86.75
57562;BME280;43397;51.530;5.974;2023-03-22T00:22:51;100604.19;;;12.74;87.68
57562;BME280;43397;51.530;5.974;2023-03-22T00:25:17;100599.94;;;12.65;88.64
57562;BME280;43397;51.530;5.974;2023-03-22T00:27:44;100594.16;;;12.85;87.75
57562;BME280;43397;51.530;5.974;2023-03-22T00:30:10;100593.56;;;12.71;88.61
57562;BME280;43397;51.530;5.974;2023-03-22T00:32:36;100589.78;;;12.81;87.99
57562;BME280;43397;51.530;5.974;2023-03-22T00:35:03;100586.38;;;12.74;88.74
57562;BME280;43397;51.530;5.974;2023-03-22T00:37:29;100583.50;;;12.84;87.61
57562;BME280;43397;51.530;5.974;2023-03-22T00:39:54;100588.81;;;12.85;87.82
57562;BME280;43397;51.530;5.974;2023-03-22T00:42:20;100575.91;;;13.06;87.13
57562;BME280;43397;51.530;5.974;2023-03-22T00:44:47;100570.78;;;12.96;87.33
57562;BME280;43397;51.530;5.974;2023-03-22T00:47:12;100571.53;;;13.02;86.91
57562;BME280;43397;51.530;5.974;2023-03-22T00:49:38;100570.03;;;12.90;87.85
57562;BME280;43397;51.530;5.974;2023-03-22T00:52:04;100571.88;;;12.88;87.62
57562;BME280;43397;51.530;5.974;2023-03-22T00:54:30;100570.53;;;12.67;89.05
57562;BME280;43397;51.530;5.974;2023-03-22T00:56:55;100563.13;;;12.81;88.84
57562;BME280;43397;51.530;5.974;2023-03-22T00:59:21;100556.13;;;12.75;88.89
57562;BME280;43397;51.530;5.974;2023-03-22T01:01:48;100553.09;;;12.92;87.87
57562;BME280;43397;51.530;5.974;2023-03-22T01:04:13;100543.41;;;12.88;88.34
57562;BME280;43397;51.530;5.974;2023-03-22T01:06:39;100542.84;;;12.74;89.51
57562;BME280;43397;51.530;5.974;2023-03-22T01:09:05;100540.31;;;12.68;90.41
57562;BME280;43397;51.530;5.974;2023-03-22T01:11:30;100542.88;;;12.72;90.50
57562;BME280;43397;51.530;5.974;2023-03-22T01:13:56;100530.38;;;12.74;90.57
57562;BME280;43397;51.530;5.974;2023-03-22T01:16:22;100525.78;;;12.81;90.37
57562;BME280;43397;51.530;5.974;2023-03-22T01:18:49;100522.38;;;12.76;90.80
57562;BME280;43397;51.530;5.974;2023-03-22T01:21:14;100519.41;;;12.87;90.83
57562;BME280;43397;51.530;5.974;2023-03-22T01:23:40;100518.06;;;13.06;89.33
57562;BME280;43397;51.530;5.974;2023-03-22T01:26:06;100516.69;;;12.91;90.16
57562;BME280;43397;51.530;5.974;2023-03-22T01:28:31;100523.25;;;12.75;91.49
57562;BME280;43397;51.530;5.974;2023-03-22T01:31:00;100517.66;;;12.87;90.97
57562;BME280;43397;51.530;5.974;2023-03-22T01:33:26;100504.31;;;12.87;90.99
57562;BME280;43397;51.530;5.974;2023-03-22T01:35:53;100506.91;;;12.90;91.32
57562;BME280;43397;51.530;5.974;2023-03-22T01:38:19;100508.22;;;12.72;91.81
57562;BME280;43397;51.530;5.974;2023-03-22T01:40:44;100493.94;;;12.73;91.51
57562;BME280;43397;51.530;5.974;2023-03-22T01:43:13;100495.50;;;12.84;91.29
57562;BME280;43397;51.530;5.974;2023-03-22T01:45:41;100484.69;;;12.90;91.18
57562;BME280;43397;51.530;5.974;2023-03-22T01:48:20;100473.94;;;12.54;93.59
57562;BME280;43397;51.530;5.974;2023-03-22T01:50:56;100471.56;;;12.42;93.77
57562;BME280;43397;51.530;5.974;2023-03-22T01:53:24;100460.34;;;12.66;92.53
57562;BME280;43397;51.530;5.974;2023-03-22T01:55:51;100466.44;;;12.32;94.27
57562;BME280;43397;51.530;5.974;2023-03-22T01:58:17;100460.03;;;12.41;94.26
57562;BME280;43397;51.530;5.974;2023-03-22T02:00:44;100459.72;;;12.55;93.41
57562;BME280;43397;51.530;5.974;2023-03-22T02:03:11;100450.19;;;12.82;92.49
57562;BME280;43397;51.530;5.974;2023-03-22T02:05:37;100452.25;;;12.71;92.80
57562;BME280;43397;51.530;5.974;2023-03-22T02:08:05;100439.41;;;12.49;94.01
57562;BME280;43397;51.530;5.974;2023-03-22T02:10:31;100435.50;;;12.64;93.36
57562;BME280;43397;51.530;5.974;2023-03-22T02:13:08;100437.53;;;12.54;93.81
57562;BME280;43397;51.530;5.974;2023-03-22T02:15:44;100433.19;;;12.49;94.12
57562;BME280;43397;51.530;5.974;2023-03-22T02:18:24;100426.66;;;12.62;93.41
57562;BME280;43397;51.530;5.974;2023-03-22T02:21:40;100432.13;;;12.58;93.29
57562;BME280;43397;51.530;5.974;2023-03-22T02:24:40;100420.59;;;12.55;93.46
57562;BME280;43397;51.530;5.974;2023-03-22T02:27:34;100425.44;;;12.77;92.22
57562;BME280;43397;51.530;5.974;2023-03-22T02:30:20;100414.38;;;12.57;92.79
57562;BME280;43397;51.530;5.974;2023-03-22T02:33:12;100414.03;;;12.70;92.56
57562;BME280;43397;51.530;5.974;2023-03-22T02:35:51;100411.66;;;12.58;92.69
57562;BME280;43397;51.530;5.974;2023-03-22T02:38:50;100405.44;;;12.58;92.67
57562;BME280;43397;51.530;5.974;2023-03-22T02:41:27;100406.16;;;12.66;92.55
57562;BME280;43397;51.530;5.974;2023-03-22T02:44:04;100409.34;;;12.80;91.93
57562;BME280;43397;51.530;5.974;2023-03-22T02:46:34;100412.81;;;12.84;91.25
57562;BME280;43397;51.530;5.974;2023-03-22T02:49:05;100409.88;;;12.59;92.61
57562;BME280;43397;51.530;5.974;2023-03-22T02:51:38;100409.41;;;12.79;92.11
57562;BME280;43397;51.530;5.974;2023-03-22T02:54:10;100407.69;;;12.76;92.14
57562;BME280;43397;51.530;5.974;2023-03-22T02:56:40;100408.72;;;12.69;91.98
57562;BME280;43397;51.530;5.974;2023-03-22T02:59:09;100397.31;;;12.64;91.78
57562;BME280;43397;51.530;5.974;2023-03-22T03:01:38;100404.31;;;12.68;91.47
57562;BME280;43397;51.530;5.974;2023-03-22T03:04:10;100403.06;;;12.45;92.78
57562;BME280;43397;51.530;5.974;2023-03-22T03:06:40;100408.34;;;12.48;93.18
57562;BME280;43397;51.530;5.974;2023-03-22T03:09:09;100397.59;;;12.51;92.05
57562;BME280;43397;51.530;5.974;2023-03-22T03:11:34;100393.06;;;12.55;92.25
57562;BME280;43397;51.530;5.974;2023-03-22T03:14:00;100398.19;;;12.25;94.00
57562;BME280;43397;51.530;5.974;2023-03-22T03:16:28;100399.72;;;12.37;93.56
57562;BME280;43397;51.530;5.974;2023-03-22T03:18:59;100393.72;;;12.27;93.35
57562;BME280;43397;51.530;5.974;2023-03-22T03:21:33;100400.50;;;12.41;92.52
57562;BME280;43397;51.530;5.974;2023-03-22T03:24:16;100389.94;;;12.38;92.70
57562;BME280;43397;51.530;5.974;2023-03-22T03:26:52;100392.66;;;12.34;93.37
57562;BME280;43397;51.530;5.974;2023-03-22T03:29:23;100391.00;;;12.30;93.05
57562;BME280;43397;51.530;5.974;2023-03-22T03:31:55;100388.00;;;12.44;92.67
57562;BME280;43397;51.530;5.974;2023-03-22T03:34:26;100394.16;;;12.46;91.87
57562;BME280;43397;51.530;5.974;2023-03-22T03:37:00;100381.91;;;12.39;91.91
57562;BME280;43397;51.530;5.974;2023-03-22T03:39:32;100377.56;;;12.71;91.15
57562;BME280;43397;51.530;5.974;2023-03-22T03:41:58;100366.81;;;12.38;91.72
57562;BME280;43397;51.530;5.974;2023-03-22T03:44:25;100378.72;;;12.61;91.22
57562;BME280;43397;51.530;5.974;2023-03-22T03:46:52;100379.28;;;12.38;91.70
57562;BME280;43397;51.530;5.974;2023-03-22T03:49:21;100377.13;;;12.52;90.91
57562;BME280;43397;51.530;5.974;2023-03-22T03:51:49;100379.06;;;12.45;91.35
57562;BME280;43397;51.530;5.974;2023-03-22T03:54:16;100379.38;;;12.70;90.42
57562;BME280;43397;51.530;5.974;2023-03-22T03:56:43;100373.66;;;12.50;90.88
57562;BME280;43397;51.530;5.974;2023-03-22T03:59:09;100373.00;;;12.39;90.99
57562;BME280;43397;51.530;5.974;2023-03-22T04:01:35;100376.22;;;12.54;90.61
57562;BME280;43397;51.530;5.974;2023-03-22T04:04:00;100373.13;;;12.34;90.69
57562;BME280;43397;51.530;5.974;2023-03-22T04:06:26;100371.28;;;12.38;90.82
57562;BME280;43397;51.530;5.974;2023-03-22T04:08:52;100373.13;;;12.34;91.15
57562;BME280;43397;51.530;5.974;2023-03-22T04:11:17;100375.06;;;12.27;91.51
57562;BME280;43397;51.530;5.974;2023-03-22T04:13:44;100381.44;;;12.59;90.08
57562;BME280;43397;51.530;5.974;2023-03-22T04:16:10;100373.50;;;12.56;89.84
57562;BME280;43397;51.530;5.974;2023-03-22T04:18:36;100373.56;;;12.53;89.80
57562;BME280;43397;51.530;5.974;2023-03-22T04:21:02;100380.16;;;12.37;90.41
57562;BME280;43397;51.530;5.974;2023-03-22T04:23:28;100379.28;;;12.38;90.64
57562;BME280;43397;51.530;5.974;2023-03-22T04:25:53;100366.09;;;12.31;90.45
57562;BME280;43397;51.530;5.974;2023-03-22T04:28:19;100356.75;;;12.49;89.87
57562;BME280;43397;51.530;5.974;2023-03-22T04:30:46;100371.38;;;12.33;90.75
57562;BME280;43397;51.530;5.974;2023-03-22T04:33:12;100368.34;;;12.50;89.08
57562;BME280;43397;51.530;5.974;2023-03-22T04:35:38;100368.88;;;12.25;91.02
57562;BME280;43397;51.530;5.974;2023-03-22T04:38:03;100358.09;;;12.31;90.29
57562;BME280;43397;51.530;5.974;2023-03-22T04:40:29;100358.94;;;12.33;90.05
57562;BME280;43397;51.530;5.974;2023-03-22T04:42:54;100362.78;;;12.20;90.65
57562;BME280;43397;51.530;5.974;2023-03-22T04:45:20;100356.09;;;12.02;91.64
57562;BME280;43397;51.530;5.974;2023-03-22T04:47:47;100353.53;;;11.98;91.56
57562;BME280;43397;51.530;5.974;2023-03-22T04:50:13;100355.66;;;12.22;90.81
57562;BME280;43397;51.530;5.974;2023-03-22T04:52:38;100356.97;;;12.03;91.18
57562;BME280;43397;51.530;5.974;2023-03-22T04:55:04;100353.97;;;12.17;90.64
57562;BME280;43397;51.530;5.974;2023-03-22T04:57:30;100359.59;;;12.04;91.01
57562;BME280;43397;51.530;5.974;2023-03-22T04:59:56;100346.44;;;11.97;91.42
57562;BME280;43397;51.530;5.974;2023-03-22T05:02:21;100355.16;;;12.05;90.83
57562;BME280;43397;51.530;5.974;2023-03-22T05:04:48;100355.50;;;11.88;91.74
57562;BME280;43397;51.530;5.974;2023-03-22T05:07:14;100357.44;;;12.22;90.01
57562;BME280;43397;51.530;5.974;2023-03-22T05:09:40;100356.34;;;11.90;90.94
57562;BME280;43397;51.530;5.974;2023-03-22T05:12:06;100356.00;;;12.07;90.49
57562;BME280;43397;51.530;5.974;2023-03-22T05:14:31;100341.16;;;11.95;90.04
57562;BME280;43397;51.530;5.974;2023-03-22T05:16:57;100346.22;;;12.06;90.21
57562;BME280;43397;51.530;5.974;2023-03-22T05:19:23;100348.94;;;12.04;89.87
57562;BME280;43397;51.530;5.974;2023-03-22T05:21:50;100355.66;;;12.21;89.10
57562;BME280;43397;51.530;5.974;2023-03-22T05:24:15;100354.53;;;11.92;89.46
57562;BME280;43397;51.530;5.974;2023-03-22T05:26:41;100353.13;;;12.14;89.11
57562;BME280;43397;51.530;5.974;2023-03-22T05:29:07;100350.19;;;11.86;89.39
57562;BME280;43397;51.530;5.974;2023-03-22T05:31:33;100358.09;;;12.31;87.75
57562;BME280;43397;51.530;5.974;2023-03-22T05:33:59;100354.78;;;12.22;87.39
57562;BME280;43397;51.530;5.974;2023-03-22T05:36:25;100358.44;;;12.16;87.83
57562;BME280;43397;51.530;5.974;2023-03-22T05:38:52;100357.63;;;12.12;88.33
57562;BME280;43397;51.530;5.974;2023-03-22T05:41:18;100350.44;;;12.18;87.63
57562;BME280;43397;51.530;5.974;2023-03-22T05:43:43;100350.84;;;12.37;87.45
57562;BME280;43397;51.530;5.974;2023-03-22T05:46:10;100346.97;;;12.12;87.67
57562;BME280;43397;51.530;5.974;2023-03-22T05:48:38;100356.25;;;12.35;86.90
57562;BME280;43397;51.530;5.974;2023-03-22T05:51:04;100351.94;;;12.28;87.37
57562;BME280;43397;51.530;5.974;2023-03-22T05:53:30;100350.84;;;12.37;86.38
57562;BME280;43397;51.530;5.974;2023-03-22T05:55:57;100349.09;;;12.37;87.29
57562;BME280;43397;51.530;5.974;2023-03-22T05:58:23;100351.03;;;12.30;86.85
57562;BME280;43397;51.530;5.974;2023-03-22T06:00:49;100351.75;;;12.37;86.14
57562;BME280;43397;51.530;5.974;2023-03-22T06:03:15;100346.16;;;12.48;86.30
57562;BME280;43397;51.530;5.974;2023-03-22T06:05:40;100339.66;;;12.60;84.79
57562;BME280;43397;51.530;5.974;2023-03-22T06:08:06;100338.19;;;12.46;86.38
57562;BME280;43397;51.530;5.974;2023-03-22T06:10:32;100335.06;;;12.65;85.96
57562;BME280;43397;51.530;5.974;2023-03-22T06:12:59;100332.28;;;12.33;86.83
57562;BME280;43397;51.530;5.974;2023-03-22T06:15:24;100334.94;;;12.33;86.69
57562;BME280;43397;51.530;5.974;2023-03-22T06:17:50;100335.38;;;12.52;86.08
57562;BME280;43397;51.530;5.974;2023-03-22T06:20:16;100338.09;;;12.51;86.07
57562;BME280;43397;51.530;5.974;2023-03-22T06:22:42;100347.63;;;12.61;85.71
57562;BME280;43397;51.530;5.974;2023-03-22T06:25:08;100338.56;;;12.31;86.84
57562;BME280;43397;51.530;5.974;2023-03-22T06:27:35;100344.97;;;12.60;86.47
57562;BME280;43397;51.530;5.974;2023-03-22T06:30:02;100329.72;;;12.65;85.94
57562;BME280;43397;51.530;5.974;2023-03-22T06:32:28;100341.03;;;12.39;86.78
57562;BME280;43397;51.530;5.974;2023-03-22T06:34:54;100344.34;;;12.50;86.05
57562;BME280;43397;51.530;5.974;2023-03-22T06:37:21;100349.59;;;12.51;85.67
57562;BME280;43397;51.530;5.974;2023-03-22T06:39:47;100355.06;;;12.47;85.91
57562;BME280;43397;51.530;5.974;2023-03-22T06:42:13;100350.63;;;12.83;84.62
57562;BME280;43397;51.530;5.974;2023-03-22T06:44:39;100345.81;;;12.62;85.42
57562;BME280;43397;51.530;5.974;2023-03-22T06:47:06;100341.38;;;12.96;84.43
57562;BME280;43397;51.530;5.974;2023-03-22T06:49:32;100336.41;;;12.83;83.37
57562;BME280;43397;51.530;5.974;2023-03-22T06:51:57;100343.34;;;12.88;83.16
57562;BME280;43397;51.530;5.974;2023-03-22T06:54:23;100337.13;;;12.89;84.44
57562;BME280;43397;51.530;5.974;2023-03-22T06:56:49;100337.59;;;13.05;82.35
57562;BME280;43397;51.530;5.974;2023-03-22T06:59:15;100333.78;;;13.48;81.67
57562;BME280;43397;51.530;5.974;2023-03-22T07:01:40;100327.78;;;13.40;80.40
57562;BME280;43397;51.530;5.974;2023-03-22T07:04:07;100344.53;;;13.45;80.45
57562;BME280;43397;51.530;5.974;2023-03-22T07:06:33;100330.84;;;12.90;82.24
57562;BME280;43397;51.530;5.974;2023-03-22T07:08:59;100338.34;;;13.43;80.40
57562;BME280;43397;51.530;5.974;2023-03-22T07:11:24;100341.63;;;13.20;80.94
57562;BME280;43397;51.530;5.974;2023-03-22T07:13:51;100316.81;;;13.16;80.22
57562;BME280;43397;51.530;5.974;2023-03-22T07:16:17;100331.47;;;13.34;80.10
57562;BME280;43397;51.530;5.974;2023-03-22T07:18:42;100338.44;;;13.40;79.41
57562;BME280;43397;51.530;5.974;2023-03-22T07:21:09;100338.59;;;13.35;81.06
57562;BME280;43397;51.530;5.974;2023-03-22T07:23:35;100347.19;;;13.45;79.44
57562;BME280;43397;51.530;5.974;2023-03-22T07:26:01;100338.03;;;13.54;78.23
57562;BME280;43397;51.530;5.974;2023-03-22T07:28:27;100347.28;;;13.73;78.83
57562;BME280;43397;51.530;5.974;2023-03-22T07:30:58;100341.47;;;13.89;77.64
57562;BME280;43397;51.530;5.974;2023-03-22T07:33:24;100341.09;;;14.01;76.90
57562;BME280;43397;51.530;5.974;2023-03-22T07:35:50;100333.81;;;14.06;77.39
57562;BME280;43397;51.530;5.974;2023-03-22T07:38:17;100335.88;;;13.98;77.34
57562;BME280;43397;51.530;5.974;2023-03-22T07:40:43;100289.00;;;13.86;75.76
57562;BME280;43397;51.530;5.974;2023-03-22T07:43:08;100320.38;;;13.79;77.56
57562;BME280;43397;51.530;5.974;2023-03-22T07:45:34;100330.66;;;13.64;78.46
57562;BME280;43397;51.530;5.974;2023-03-22T07:48:00;100320.81;;;13.66;77.91
57562;BME280;43397;51.530;5.974;2023-03-22T07:50:25;100327.59;;;14.06;76.93
57562;BME280;43397;51.530;5.974;2023-03-22T07:52:51;100332.25;;;14.29;76.26
57562;BME280;43397;51.530;5.974;2023-03-22T07:55:18;100335.38;;;13.85;75.19
57562;BME280;43397;51.530;5.974;2023-03-22T07:57:44;100335.28;;;14.16;75.04
57562;BME280;43397;51.530;5.974;2023-03-22T08:00:11;100329.16;;;14.13;74.68
57562;BME280;43397;51.530;5.974;2023-03-22T08:02:36;100341.16;;;14.57;73.10
57562;BME280;43397;51.530;5.974;2023-03-22T08:05:02;100340.00;;;14.65;73.78
57562;BME280;43397;51.530;5.974;2023-03-22T08:07:28;100330.81;;;14.45;73.55
57562;BME280;43397;51.530;5.974;2023-03-22T08:09:54;100322.19;;;13.79;74.58
57562;BME280;43397;51.530;5.974;2023-03-22T08:12:21;100338.19;;;14.09;74.38
57562;BME280;43397;51.530;5.974;2023-03-22T08:14:47;100337.63;;;14.55;72.96
57562;BME280;43397;51.530;5.974;2023-03-22T08:17:12;100329.88;;;14.74;72.12
57562;BME280;43397;51.530;5.974;2023-03-22T08:19:38;100321.78;;;14.76;71.68
57562;BME280;43397;51.530;5.974;2023-03-22T08:22:04;100332.56;;;14.74;70.67
57562;BME280;43397;51.530;5.974;2023-03-22T08:24:30;100330.66;;;14.50;71.63
57562;BME280;43397;51.530;5.974;2023-03-22T08:26:55;100325.50;;;14.98;72.43
57562;BME280;43397;51.530;5.974;2023-03-22T08:29:22;100335.31;;;15.23;69.78
57562;BME280;43397;51.530;5.974;2023-03-22T08:31:48;100344.16;;;15.00;70.06
57562;BME280;43397;51.530;5.974;2023-03-22T08:34:14;100334.25;;;15.29;69.67
57562;BME280;43397;51.530;5.974;2023-03-22T08:36:40;100345.97;;;14.73;69.73
57562;BME280;43397;51.530;5.974;2023-03-22T08:39:06;100333.31;;;14.78;69.39
57562;BME280;43397;51.530;5.974;2023-03-22T08:41:32;100352.56;;;14.63;70.54
57562;BME280;43397;51.530;5.974;2023-03-22T08:43:58;100340.19;;;14.30;70.48
57562;BME280;43397;51.530;5.974;2023-03-22T08:46:25;100356.31;;;14.84;70.00
57562;BME280;43397;51.530;5.974;2023-03-22T08:48:51;100359.91;;;14.82;68.19
57562;BME280;43397;51.530;5.974;2023-03-22T08:51:17;100339.19;;;14.63;68.33
57562;BME280;43397;51.530;5.974;2023-03-22T08:53:43;100347.59;;;15.04;66.57
57562;BME280;43397;51.530;5.974;2023-03-22T08:56:09;100340.72;;;14.96;66.49
57562;BME280;43397;51.530;5.974;2023-03-22T08:58:34;100344.13;;;14.75;66.26
57562;BME280;43397;51.530;5.974;2023-03-22T09:01:00;100336.81;;;14.80;66.24
57562;BME280;43397;51.530;5.974;2023-03-22T09:03:27;100302.06;;;14.78;66.58
57562;BME280;43397;51.530;5.974;2023-03-22T09:05:53;100331.47;;;15.30;64.86
57562;BME280;43397;51.530;5.974;2023-03-22T09:08:19;100322.88;;;15.94;62.73
57562;BME280;43397;51.530;5.974;2023-03-22T09:10:44;100322.59;;;15.78;62.20
57562;BME280;43397;51.530;5.974;2023-03-22T09:13:10;100319.53;;;16.11;61.10
57562;BME280;43397;51.530;5.974;2023-03-22T09:15:36;100320.53;;;16.31;60.81
57562;BME280;43397;51.530;5.974;2023-03-22T09:18:01;100319.50;;;15.89;61.70
57562;BME280;43397;51.530;5.974;2023-03-22T09:20:28;100299.03;;;16.32;60.16
57562;BME280;43397;51.530;5.974;2023-03-22T09:22:54;100324.88;;;16.11;61.53
57562;BME280;43397;51.530;5.974;2023-03-22T09:25:20;100307.78;;;15.68;61.84
57562;BME280;43397;51.530;5.974;2023-03-22T09:27:45;100308.22;;;15.56;61.97
57562;BME280;43397;51.530;5.974;2023-03-22T09:30:11;100322.19;;;15.89;62.48
57562;BME280;43397;51.530;5.974;2023-03-22T09:32:37;100277.28;;;15.49;61.65
57562;BME280;43397;51.530;5.974;2023-03-22T09:35:03;100308.88;;;16.10;60.71
57562;BME280;43397;51.530;5.974;2023-03-22T09:37:31;100302.06;;;15.54;61.83
57562;BME280;43397;51.530;5.974;2023-03-22T09:39:56;100302.44;;;15.92;62.23
57562;BME280;43397;51.530;5.974;2023-03-22T09:42:35;100305.69;;;16.22;60.00
57562;BME280;43397;51.530;5.974;2023-03-22T09:45:03;100310.81;;;15.82;61.51
57562;BME280;43397;51.530;5.974;2023-03-22T09:47:33;100289.72;;;15.50;63.14
57562;BME280;43397;51.530;5.974;2023-03-22T09:50:04;100310.63;;;15.15;61.80
57562;BME280;43397;51.530;5.974;2023-03-22T09:52:32;100305.34;;;15.37;61.98
57562;BME280;43397;51.530;5.974;2023-03-22T09:54:58;100319.47;;;16.35;60.87
57562;BME280;43397;51.530;5.974;2023-03-22T09:57:28;100308.78;;;15.89;60.32
57562;BME280;43397;51.530;5.974;2023-03-22T10:00:01;100316.25;;;15.81;60.27
57562;BME280;43397;51.530;5.974;2023-03-22T10:02:38;100311.41;;;15.91;60.32
57562;BME280;43397;51.530;5.974;2023-03-22T10:05:13;100314.22;;;15.88;60.41
57562;BME280;43397;51.530;5.974;2023-03-22T10:07:57;100284.19;;;15.54;60.37
57562;BME280;43397;51.530;5.974;2023-03-22T10:10:26;100293.72;;;15.38;60.60
57562;BME280;43397;51.530;5.974;2023-03-22T10:12:55;100303.31;;;15.43;60.88
57562;BME280;43397;51.530;5.974;2023-03-22T10:15:28;100297.97;;;15.67;59.86
57562;BME280;43397;51.530;5.974;2023-03-22T10:17:56;100294.88;;;15.79;60.69
57562;BME280;43397;51.530;5.974;2023-03-22T10:20:30;100286.41;;;15.43;60.91
57562;BME280;43397;51.530;5.974;2023-03-22T10:23:00;100299.09;;;15.61;59.82
57562;BME280;43397;51.530;5.974;2023-03-22T10:25:32;100289.44;;;15.57;60.44
57562;BME280;43397;51.530;5.974;2023-03-22T10:28:00;100285.94;;;15.55;59.78
57562;BME280;43397;51.530;5.974;2023-03-22T10:30:29;100293.44;;;15.69;60.40
57562;BME280;43397;51.530;5.974;2023-03-22T10:33:00;100303.56;;;15.37;61.17
57562;BME280;43397;51.530;5.974;2023-03-22T10:35:26;100275.34;;;15.04;61.82
57562;BME280;43397;51.530;5.974;2023-03-22T10:37:54;100301.06;;;15.08;61.97
57562;BME280;43397;51.530;5.974;2023-03-22T10:40:24;100302.34;;;15.22;61.44
57562;BME280;43397;51.530;5.974;2023-03-22T10:42:53;100292.88;;;15.12;61.22
57562;BME280;43397;51.530;5.974;2023-03-22T10:45:19;100253.94;;;15.04;61.27
57562;BME280;43397;51.530;5.974;2023-03-22T10:47:49;100285.94;;;15.32;60.92
57562;BME280;43397;51.530;5.974;2023-03-22T10:50:19;100291.31;;;15.30;62.05
57562;BME280;43397;51.530;5.974;2023-03-22T10:52:47;100278.34;;;14.94;61.73
57562;BME280;43397;51.530;5.974;2023-03-22T10:55:15;100280.47;;;15.10;62.87
57562;BME280;43397;51.530;5.974;2023-03-22T10:57:48;100296.31;;;15.16;62.89
57562;BME280;43397;51.530;5.974;2023-03-22T11:00:16;100298.91;;;14.94;63.42
57562;BME280;43397;51.530;5.974;2023-03-22T11:02:45;100310.53;;;15.41;65.01
57562;BME280;43397;51.530;5.974;2023-03-22T11:05:19;100308.91;;;15.14;65.22
57562;BME280;43397;51.530;5.974;2023-03-22T11:07:45;100308.16;;;15.09;65.97
57562;BME280;43397;51.530;5.974;2023-03-22T11:10:19;100304.25;;;14.67;67.83
57562;BME280;43397;51.530;5.974;2023-03-22T11:12:49;100308.00;;;14.88;70.48
57562;BME280;43397;51.530;5.974;2023-03-22T11:15:27;100306.50;;;14.53;70.75
57562;BME280;43397;51.530;5.974;2023-03-22T11:17:58;100307.72;;;14.71;72.59
57562;BME280;43397;51.530;5.974;2023-03-22T11:20:25;100308.53;;;14.98;71.24
57562;BME280;43397;51.530;5.974;2023-03-22T11:22:51;100273.16;;;14.36;69.10
57562;BME280;43397;51.530;5.974;2023-03-22T11:25:21;100292.44;;;14.74;69.28
57562;BME280;43397;51.530;5.974;2023-03-22T11:27:53;100310.84;;;14.84;69.02
57562;BME280;43397;51.530;5.974;2023-03-22T11:30:22;100308.22;;;14.82;67.98
57562;BME280;43397;51.530;5.974;2023-03-22T11:32:48;100310.84;;;14.84;67.06
57562;BME280;43397;51.530;5.974;2023-03-22T11:35:20;100286.34;;;14.69;67.52
57562;BME280;43397;51.530;5.974;2023-03-22T11:37:48;100299.44;;;15.04;67.76
57562;BME280;43397;51.530;5.974;2023-03-22T11:40:16;100292.06;;;14.85;67.84
57562;BME280;43397;51.530;5.974;2023-03-22T11:42:42;100289.22;;;14.90;67.41
57562;BME280;43397;51.530;5.974;2023-03-22T11:45:13;100295.25;;;14.70;67.15
57562;BME280;43397;51.530;5.974;2023-03-22T11:47:40;100294.09;;;15.04;67.71
57562;BME280;43397;51.530;5.974;2023-03-22T11:50:08;100288.31;;;14.89;68.56
57562;BME280;43397;51.530;5.974;2023-03-22T11:52:46;100299.03;;;14.64;67.52
57562;BME280;43397;51.530;5.974;2023-03-22T11:55:13;100306.53;;;14.79;67.67
57562;BME280;43397;51.530;5.974;2023-03-22T11:57:40;100284.81;;;14.62;68.84
57562;BME280;43397;51.530;5.974;2023-03-22T12:00:15;100309.19;;;14.79;67.91
57562;BME280;43397;51.530;5.974;2023-03-22T12:02:44;100309.22;;;14.78;68.12
57562;BME280;43397;51.530;5.974;2023-03-22T12:05:17;100289.09;;;14.68;68.15
57562;BME280;43397;51.530;5.974;2023-03-22T12:07:46;100311.91;;;14.78;68.05
57562;BME280;43397;51.530;5.974;2023-03-22T12:10:16;100304.94;;;14.99;68.11
57562;BME280;43397;51.530;5.974;2023-03-22T12:12:47;100316.09;;;15.12;67.80
57562;BME280;43397;51.530;5.974;2023-03-22T12:15:20;100299.44;;;15.04;67.75
57562;BME280;43397;51.530;5.974;2023-03-22T12:17:52;100306.44;;;14.54;71.06
57562;BME280;43397;51.530;5.974;2023-03-22T12:20:30;100317.78;;;14.63;73.65
57562;BME280;43397;51.530;5.974;2023-03-22T12:23:00;100326.81;;;14.02;75.11
57562;BME280;43397;51.530;5.974;2023-03-22T12:25:28;100318.09;;;14.25;73.95
57562;BME280;43397;51.530;5.974;2023-03-22T12:27:58;100314.13;;;14.65;72.74
57562;BME280;43397;51.530;5.974;2023-03-22T12:30:30;100305.16;;;14.39;73.21
57562;BME280;43397;51.530;5.974;2023-03-22T12:33:01;100309.69;;;14.66;72.25
57562;BME280;43397;51.530;5.974;2023-03-22T12:35:30;100300.75;;;14.65;71.75
57562;BME280;43397;51.530;5.974;2023-03-22T12:37:59;100293.72;;;14.63;70.99
57562;BME280;43397;51.530;5.974;2023-03-22T12:40:28;100286.44;;;15.65;68.45
57562;BME280;43397;51.530;5.974;2023-03-22T12:43:01;100278.97;;;15.02;69.83
57562;BME280;43397;51.530;5.974;2023-03-22T12:45:32;100271.63;;;14.82;70.22
57562;BME280;43397;51.530;5.974;2023-03-22T12:48:05;100264.03;;;15.20;69.79
57562;BME280;43397;51.530;5.974;2023-03-22T12:50:37;100272.41;;;15.35;67.50
57562;BME280;43397;51.530;5.974;2023-03-22T12:53:10;100263.00;;;14.99;68.51
57562;BME280;43397;51.530;5.974;2023-03-22T12:55:38;100267.78;;;15.40;68.64